createdAt,value
2019-02-24T00:01:24.212Z,52.00
2019-02-24T00:06:29.989Z,51.90
2019-02-24T00:11:36.061Z,51.90
2019-02-24T00:16:41.827Z,51.90
2019-02-24T00:21:47.685Z,51.90
2019-02-24T00:26:53.612Z,51.90
2019-02-24T00:32:00.114Z,51.90
2019-02-24T00:37:06.458Z,51.90
2019-02-24T00:42:12.866Z,51.80
2019-02-24T00:47:20.242Z,51.80
2019-02-24T00:52:26.246Z,51.80
2019-02-24T00:57:32.126Z,51.80
2019-02-24T01:02:38.413Z,51.80
2019-02-24T01:07:46.493Z,51.70
2019-02-24T01:12:52.817Z,51.70
2019-02-24T01:17:59.110Z,52.00
2019-02-24T01:23:05.449Z,51.70
2019-02-24T01:28:10.865Z,51.70
2019-02-24T01:33:17.058Z,51.70
2019-02-24T01:38:23.465Z,51.60
2019-02-24T01:43:30.070Z,51.60
2019-02-24T01:48:36.192Z,51.60
2019-02-24T01:53:43.671Z,51.60
2019-02-24T01:58:49.844Z,51.50
2019-02-24T02:03:55.491Z,51.50
2019-02-24T02:09:01.633Z,51.50
2019-02-24T02:14:07.701Z,51.50
2019-02-24T02:19:15.415Z,51.50
2019-02-24T02:24:22.862Z,51.40
2019-02-24T02:29:28.721Z,51.50
2019-02-24T02:34:34.553Z,51.40
2019-02-24T02:39:41.953Z,51.50
2019-02-24T02:44:48.639Z,51.40
2019-02-24T02:49:56.378Z,51.30
2019-02-24T02:55:03.939Z,51.30
2019-02-24T03:00:17.887Z,51.30
2019-02-24T03:05:24.723Z,51.30
2019-02-24T03:10:30.345Z,51.30
2019-02-24T03:15:37.177Z,51.20
2019-02-24T03:20:42.287Z,51.20
2019-02-24T03:25:47.877Z,51.30
2019-02-24T03:30:54.445Z,51.20
2019-02-24T03:36:00.963Z,51.20
2019-02-24T03:41:06.144Z,51.20
2019-02-24T03:46:12.499Z,51.10
2019-02-24T03:51:19.183Z,51.20
2019-02-24T03:56:26.945Z,51.10
2019-02-24T04:01:33.869Z,51.10
2019-02-24T04:06:40.732Z,51.20
2019-02-24T04:11:47.952Z,51.10
2019-02-24T04:16:54.188Z,51.10
2019-02-24T04:21:59.952Z,51.10
2019-02-24T04:27:06.543Z,50.70
2019-02-24T04:32:12.139Z,51.10
2019-02-24T04:37:18.678Z,51.00
2019-02-24T04:42:24.860Z,51.00
2019-02-24T04:47:31.679Z,51.00
2019-02-24T04:52:39.013Z,51.00
2019-02-24T04:57:44.795Z,51.00
2019-02-24T05:02:51.699Z,50.90
2019-02-24T05:07:57.743Z,51.00
2019-02-24T05:13:03.444Z,51.00
2019-02-24T05:18:10.769Z,51.00
2019-02-24T05:23:16.862Z,51.00
2019-02-24T05:28:23.581Z,50.90
2019-02-24T05:33:29.729Z,50.90
2019-02-24T05:38:35.527Z,50.90
2019-02-24T05:43:42.578Z,50.90
2019-02-24T05:48:49.353Z,51.00
2019-02-24T05:53:55.149Z,50.90
2019-02-24T05:59:01.137Z,50.90
2019-02-24T06:04:07.592Z,51.00
2019-02-24T06:09:14.396Z,50.80
2019-02-24T06:14:19.881Z,50.90
2019-02-24T06:19:26.201Z,50.80
2019-02-24T06:24:32.480Z,50.90
2019-02-24T06:29:40.133Z,50.90
2019-02-24T06:34:46.460Z,50.90
2019-02-24T06:39:52.493Z,51.10
2019-02-24T06:44:59.996Z,50.90
2019-02-24T06:50:07.829Z,50.90
2019-02-24T06:55:14.383Z,50.90
2019-02-24T07:00:20.506Z,50.80
2019-02-24T07:05:25.301Z,50.80
2019-02-24T07:10:31.727Z,50.80
2019-02-24T07:15:37.857Z,50.90
2019-02-24T07:20:44.408Z,50.80
2019-02-24T07:25:50.400Z,50.80
2019-02-24T07:30:55.812Z,50.80
2019-02-24T07:36:03.121Z,50.90
2019-02-24T07:41:09.685Z,50.90
2019-02-24T07:46:15.649Z,50.90
2019-02-24T07:51:21.532Z,51.10
2019-02-24T07:56:26.987Z,51.00
2019-02-24T08:01:33.735Z,51.00
2019-02-24T08:06:40.341Z,51.10
2019-02-24T08:11:45.925Z,51.10
2019-02-24T08:16:50.460Z,51.10
2019-02-24T08:21:57.270Z,51.10
2019-02-24T08:27:03.985Z,51.20
2019-02-24T08:32:10.336Z,51.60
2019-02-24T08:37:19.352Z,51.20
2019-02-24T08:42:26.149Z,51.20
2019-02-24T08:47:32.706Z,51.20
2019-02-24T08:52:38.122Z,51.70
2019-02-24T08:57:47.523Z,51.10
2019-02-24T09:02:53.031Z,51.00
2019-02-24T09:08:00.589Z,51.00
2019-02-24T09:13:06.523Z,51.10
2019-02-24T09:18:13.911Z,51.00
2019-02-24T09:23:19.623Z,51.10
2019-02-24T09:28:26.793Z,51.00
2019-02-24T09:33:33.165Z,50.80
2019-02-24T09:38:59.452Z,51.20
2019-02-24T09:44:04.665Z,50.80
2019-02-24T09:49:11.518Z,50.70
2019-02-24T09:54:17.909Z,50.70
2019-02-24T09:59:23.946Z,50.60
2019-02-24T10:04:30.970Z,50.70
2019-02-24T10:09:37.577Z,50.70
2019-02-24T10:14:42.865Z,50.50
2019-02-24T10:19:48.924Z,50.50
2019-02-24T10:24:58.981Z,50.30
2019-02-24T10:30:09.873Z,50.30
2019-02-24T10:35:15.502Z,50.20
2019-02-24T10:40:23.681Z,50.20
2019-02-24T10:45:39.413Z,50.80
2019-02-24T10:50:47.532Z,49.30
2019-02-24T10:55:54.065Z,49.20
2019-02-24T11:01:00.369Z,49.20
2019-02-24T11:06:07.258Z,49.10
2019-02-24T11:11:13.318Z,49.10
2019-02-24T11:16:25.396Z,49.00
2019-02-24T11:21:30.558Z,48.90
2019-02-24T11:26:37.029Z,48.90
2019-02-24T11:31:44.258Z,48.40
2019-02-24T11:36:50.545Z,48.50
2019-02-24T11:41:56.594Z,48.40
2019-02-24T11:47:25.091Z,48.60
2019-02-24T11:52:30.893Z,48.60
2019-02-24T11:57:36.649Z,48.30
2019-02-24T12:02:43.867Z,48.40
2019-02-24T12:07:50.050Z,48.20
2019-02-24T12:12:56.488Z,48.30
2019-02-24T12:18:03.974Z,48.20
2019-02-24T12:23:10.191Z,48.10
2019-02-24T12:28:24.263Z,47.90
2019-02-24T12:33:39.189Z,47.90
2019-02-24T12:38:45.709Z,47.90
2019-02-24T12:43:51.247Z,47.70
2019-02-24T12:48:58.115Z,47.80
2019-02-24T12:54:05.287Z,47.70
2019-02-24T12:59:12.003Z,47.80
2019-02-24T13:04:28.761Z,47.50
2019-02-24T13:09:34.081Z,47.50
2019-02-24T13:14:40.781Z,47.50
2019-02-24T13:19:48.585Z,47.40
2019-02-24T13:24:54.024Z,47.00
2019-02-24T13:30:03.522Z,47.30
2019-02-24T13:35:09.911Z,47.30
2019-02-24T13:40:15.663Z,47.40
2019-02-24T13:45:31.950Z,47.60
2019-02-24T13:50:39.174Z,47.20
2019-02-24T14:01:49.681Z,47.10
2019-02-24T14:06:55.509Z,46.70
2019-02-24T14:12:02.556Z,46.70
2019-02-24T14:17:09.681Z,46.60
2019-02-24T14:22:15.553Z,46.60
2019-02-24T14:27:21.124Z,46.70
2019-02-24T14:32:32.901Z,46.60
2019-02-24T14:37:34.544Z,46.60
2019-02-24T14:42:41.090Z,46.50
2019-02-24T14:47:46.579Z,46.30
2019-02-24T14:52:53.496Z,46.40
2019-02-24T14:58:08.578Z,46.40
2019-02-24T15:03:16.617Z,46.40
2019-02-24T15:08:32.467Z,46.30
2019-02-24T15:13:39.125Z,46.20
2019-02-24T15:18:45.214Z,46.10
2019-02-24T15:23:54.149Z,46.20
2019-02-24T15:29:00.599Z,46.30
2019-02-24T15:34:06.485Z,46.20
2019-02-24T15:39:12.502Z,46.20
2019-02-24T15:44:17.653Z,46.00
2019-02-24T15:49:24.910Z,45.90
2019-02-24T15:54:31.670Z,45.90
2019-02-24T15:59:38.366Z,45.90
2019-02-24T16:04:43.414Z,45.60
2019-02-24T16:09:50.245Z,45.90
2019-02-24T16:14:59.064Z,45.60
2019-02-24T16:20:05.530Z,46.00
2019-02-24T16:25:22.714Z,46.00
2019-02-24T16:30:29.168Z,46.00
2019-02-24T16:35:35.649Z,46.30
2019-02-24T16:40:41.129Z,46.10
2019-02-24T16:45:48.518Z,46.30
2019-02-24T16:50:58.220Z,46.30
2019-02-24T16:56:03.685Z,46.40
2019-02-24T17:01:10.025Z,46.50
2019-02-24T17:06:17.301Z,46.50
2019-02-24T17:11:25.232Z,46.40
2019-02-24T17:16:34.165Z,46.30
2019-02-24T17:21:40.394Z,46.40
2019-02-24T17:26:57.499Z,46.30
2019-02-24T17:32:03.043Z,46.20
2019-02-24T17:37:09.555Z,46.10
2019-02-24T17:42:15.080Z,46.10
2019-02-24T17:47:23.253Z,46.00
2019-02-24T17:52:30.351Z,46.00
2019-02-24T17:57:35.762Z,45.80
2019-02-24T18:02:42.972Z,45.80
2019-02-24T18:07:49.795Z,45.90
2019-02-24T18:12:56.595Z,45.80
2019-02-24T18:18:04.328Z,45.90
2019-02-24T18:23:12.160Z,45.80
2019-02-24T18:28:30.567Z,45.80
2019-02-24T18:33:37.070Z,45.70
2019-02-24T18:38:44.131Z,45.60
2019-02-24T18:43:52.400Z,45.60
2019-02-24T18:48:59.751Z,45.60
2019-02-24T19:00:12.514Z,45.60
2019-02-24T19:05:19.584Z,45.50
2019-02-24T19:10:25.597Z,45.50
2019-02-24T19:15:35.912Z,45.50
2019-02-24T19:20:43.626Z,45.50
2019-02-24T19:26:07.648Z,46.30
2019-02-24T19:31:26.644Z,46.20
2019-02-24T19:36:51.262Z,46.20
2019-02-24T19:42:10.480Z,46.10
2019-02-24T19:47:25.412Z,46.10
2019-02-24T19:52:31.053Z,46.10
2019-02-24T19:57:40.461Z,45.90
2019-02-24T20:02:46.452Z,46.10
2019-02-24T20:07:52.097Z,46.10
2019-02-24T20:12:57.636Z,46.10
2019-02-24T20:18:05.240Z,46.00
2019-02-24T20:23:11.322Z,46.20
2019-02-24T20:28:16.724Z,46.20
2019-02-24T20:33:23.202Z,46.10
2019-02-24T20:38:29.596Z,46.10
2019-02-24T20:43:36.622Z,46.10
2019-02-24T20:48:58.186Z,46.00
2019-02-24T20:54:04.685Z,46.60
2019-02-24T20:59:10.519Z,46.00
2019-02-24T21:04:17.771Z,46.00
2019-02-24T21:09:34.904Z,45.90
2019-02-24T21:20:23.629Z,45.80
2019-02-24T21:25:30.477Z,45.70
2019-02-24T21:30:36.667Z,45.80
2019-02-24T21:35:43.100Z,45.80
2019-02-24T21:40:49.831Z,45.70
2019-02-24T21:45:55.990Z,45.70
2019-02-24T21:51:02.249Z,45.70
2019-02-24T21:56:09.030Z,45.60
2019-02-24T22:01:15.868Z,45.70
2019-02-24T22:06:22.624Z,45.60
2019-02-24T22:11:29.096Z,45.70
2019-02-24T22:16:34.974Z,45.70
2019-02-24T22:21:41.220Z,45.60
2019-02-24T22:26:46.792Z,45.60
2019-02-24T22:31:53.423Z,45.60
2019-02-24T22:37:00.540Z,45.60
2019-02-24T22:42:06.140Z,45.60
2019-02-24T22:47:11.976Z,45.70
2019-02-24T22:52:19.100Z,45.70
2019-02-24T22:57:23.989Z,45.60
2019-02-24T23:02:29.717Z,45.60
2019-02-24T23:07:35.684Z,45.50
2019-02-24T23:12:41.556Z,45.50
2019-02-24T23:17:47.183Z,45.50
2019-02-24T23:22:56.166Z,45.60
2019-02-24T23:28:02.584Z,46.20
2019-02-24T23:33:09.948Z,45.60
2019-02-24T23:38:15.891Z,45.60
2019-02-24T23:43:22.736Z,45.50
2019-02-24T23:48:28.401Z,45.60
2019-02-24T23:53:35.342Z,45.60
2019-02-24T23:58:41.029Z,45.60
